createdAt,value
2023-02-11T00:00:49.820Z,10.50
2023-02-11T00:01:54.109Z,10.00
2023-02-11T00:02:57.616Z,9.00
2023-02-11T00:04:00.976Z,10.00
2023-02-11T00:05:04.496Z,9.50
2023-02-11T00:06:08.150Z,10.00
2023-02-11T00:07:13.578Z,10.00
2023-02-11T00:08:17.146Z,10.00
2023-02-11T00:09:20.700Z,9.50
2023-02-11T00:10:24.450Z,9.50
2023-02-11T00:11:28.147Z,10.00
2023-02-11T00:12:32.070Z,10.50
2023-02-11T00:13:35.606Z,11.00
2023-02-11T00:14:39.131Z,9.75
2023-02-11T00:15:42.623Z,10.00
2023-02-11T00:16:46.381Z,9.50
2023-02-11T00:17:49.968Z,9.50
2023-02-11T00:18:53.804Z,9.00
2023-02-11T00:19:57.274Z,9.50
2023-02-11T00:21:00.899Z,10.75
2023-02-11T00:22:04.408Z,10.50
2023-02-11T00:23:07.922Z,8.25
2023-02-11T00:24:13.444Z,9.50
2023-02-11T00:25:17.240Z,10.50
2023-02-11T00:26:21.088Z,9.50
2023-02-11T00:27:24.671Z,9.50
2023-02-11T00:28:28.296Z,9.50
2023-02-11T00:29:31.897Z,11.00
2023-02-11T00:30:52.478Z,12.00
2023-02-11T00:31:56.062Z,10.50
2023-02-11T00:32:59.548Z,10.25
2023-02-11T00:34:03.240Z,10.50
2023-02-11T00:35:06.603Z,10.00
2023-02-11T00:36:10.087Z,11.50
2023-02-11T00:37:13.561Z,11.00
2023-02-11T00:38:16.998Z,10.00
2023-02-11T00:39:20.580Z,10.00
2023-02-11T00:40:24.078Z,11.00
2023-02-11T00:41:28.149Z,11.00
2023-02-11T00:42:31.885Z,10.50
2023-02-11T00:43:35.275Z,10.00
2023-02-11T00:44:38.744Z,9.75
2023-02-11T00:45:42.531Z,9.25
2023-02-11T00:46:46.048Z,10.00
2023-02-11T00:47:58.362Z,11.00
2023-02-11T00:49:01.982Z,11.50
2023-02-11T00:50:05.882Z,9.75
2023-02-11T00:51:09.490Z,9.75
2023-02-11T00:52:13.095Z,10.00
2023-02-11T00:53:16.678Z,10.00
2023-02-11T00:54:20.275Z,11.00
2023-02-11T00:55:23.993Z,11.00
2023-02-11T00:56:27.647Z,12.00
2023-02-11T00:57:33.392Z,11.50
2023-02-11T00:58:36.850Z,9.50
2023-02-11T00:59:47.059Z,10.00
2023-02-11T01:01:00.133Z,12.00
2023-02-11T01:02:03.606Z,11.00
2023-02-11T01:03:07.114Z,9.00
2023-02-11T01:04:10.808Z,9.50
2023-02-11T01:05:14.421Z,9.25
2023-02-11T01:06:18.354Z,10.00
2023-02-11T01:07:22.022Z,11.00
2023-02-11T01:08:25.526Z,9.75
2023-02-11T01:09:29.197Z,9.00
2023-02-11T01:10:32.739Z,8.75
2023-02-11T01:11:36.455Z,8.50
2023-02-11T01:12:40.294Z,8.50
2023-02-11T01:13:43.957Z,9.00
2023-02-11T01:14:47.889Z,9.00
2023-02-11T01:15:52.051Z,7.50
2023-02-11T01:16:55.998Z,8.00
2023-02-11T01:19:25.811Z,7.50
2023-02-11T01:20:29.555Z,9.00
2023-02-11T01:21:33.471Z,8.00
2023-02-11T01:22:36.991Z,9.00
2023-02-11T01:23:40.735Z,8.75
2023-02-11T01:24:44.838Z,7.50
2023-02-11T01:25:48.863Z,8.00
2023-02-11T01:26:52.832Z,7.50
2023-02-11T01:27:58.902Z,8.50
2023-02-11T01:29:02.453Z,8.25
2023-02-11T01:30:06.302Z,9.25
2023-02-11T01:31:09.766Z,8.75
2023-02-11T01:32:13.766Z,8.75
2023-02-11T01:33:20.124Z,8.00
2023-02-11T01:34:23.675Z,7.75
2023-02-11T01:35:27.360Z,8.00
2023-02-11T01:36:31.066Z,8.00
2023-02-11T01:37:34.642Z,8.50
2023-02-11T01:38:38.411Z,8.50
2023-02-11T01:39:42.164Z,7.00
2023-02-11T01:40:45.844Z,7.75
2023-02-11T01:41:49.331Z,8.00
2023-02-11T01:42:52.874Z,7.25
2023-02-11T01:43:56.341Z,7.00
2023-02-11T01:45:00.651Z,7.50
2023-02-11T01:46:07.992Z,8.00
2023-02-11T01:47:13.179Z,9.00
2023-02-11T01:48:17.339Z,7.50
2023-02-11T01:49:21.850Z,8.50
2023-02-11T01:51:46.475Z,10.50
2023-02-11T01:52:50.115Z,9.75
2023-02-11T01:53:53.583Z,10.50
2023-02-11T01:54:57.031Z,8.75
2023-02-11T01:56:00.561Z,10.00
2023-02-11T01:59:32.052Z,10.00
2023-02-11T02:00:36.040Z,10.50
2023-02-11T02:01:39.950Z,10.00
2023-02-11T02:02:43.519Z,9.25
2023-02-11T02:03:47.395Z,10.00
2023-02-11T02:04:51.232Z,8.50
2023-02-11T02:05:54.714Z,9.25
2023-02-11T02:06:58.214Z,10.00
2023-02-11T02:08:06.353Z,9.25
2023-02-11T02:09:09.968Z,10.75
2023-02-11T02:10:13.614Z,11.50
2023-02-11T02:11:17.171Z,9.50
2023-02-11T02:12:20.739Z,10.00
2023-02-11T02:13:26.020Z,9.00
2023-02-11T02:15:50.804Z,9.50
2023-02-11T02:16:55.189Z,10.25
2023-02-11T02:17:58.692Z,10.00
2023-02-11T02:19:02.154Z,10.25
2023-02-11T02:20:07.284Z,9.75
2023-02-11T02:22:33.276Z,9.00
2023-02-11T02:23:42.414Z,10.25
2023-02-11T02:24:52.269Z,8.50
2023-02-11T02:25:55.874Z,10.00
2023-02-11T02:26:59.611Z,9.50
2023-02-11T02:28:03.339Z,10.00
2023-02-11T02:29:07.236Z,9.00
2023-02-11T02:30:10.911Z,9.00
2023-02-11T02:31:14.814Z,8.00
2023-02-11T02:32:27.209Z,8.00
2023-02-11T02:33:31.041Z,8.00
2023-02-11T02:34:34.492Z,9.00
2023-02-11T02:35:44.728Z,8.50
2023-02-11T02:36:49.453Z,8.50
2023-02-11T02:37:54.139Z,9.00
2023-02-11T02:38:58.635Z,9.50
2023-02-11T02:40:02.240Z,9.75
2023-02-11T02:41:05.772Z,9.25
2023-02-11T02:42:09.275Z,9.00
2023-02-11T02:43:12.814Z,9.50
2023-02-11T02:44:16.352Z,9.50
2023-02-11T02:45:19.998Z,8.50
2023-02-11T02:46:23.610Z,7.50
2023-02-11T02:47:27.079Z,8.50
2023-02-11T02:51:28.326Z,8.50
2023-02-11T02:52:31.592Z,8.25
2023-02-11T02:53:37.763Z,9.00
2023-02-11T02:54:40.917Z,9.50
2023-02-11T02:55:44.934Z,9.50
2023-02-11T02:56:48.449Z,9.00
2023-02-11T02:57:52.008Z,9.25
2023-02-11T02:58:55.611Z,9.50
2023-02-11T02:59:59.069Z,9.50
2023-02-11T03:02:35.690Z,8.75
2023-02-11T03:03:39.458Z,10.50
2023-02-11T03:04:43.371Z,9.75
2023-02-11T03:05:49.559Z,8.50
2023-02-11T03:06:52.575Z,8.50
2023-02-11T03:08:01.857Z,9.00
2023-02-11T03:09:05.709Z,9.00
2023-02-11T03:11:30.548Z,7.00
2023-02-11T03:12:34.034Z,8.50
2023-02-11T03:13:38.089Z,8.00
2023-02-11T03:14:41.548Z,9.50
2023-02-11T03:16:59.664Z,7.00
2023-02-11T03:18:03.286Z,7.50
2023-02-11T03:19:07.072Z,7.50
2023-02-11T03:20:10.908Z,7.75
2023-02-11T03:21:14.753Z,8.50
2023-02-11T03:22:28.423Z,7.50
2023-02-11T03:23:32.637Z,8.00
2023-02-11T03:24:36.264Z,9.00
2023-02-11T03:27:01.350Z,9.00
2023-02-11T03:28:07.054Z,8.50
2023-02-11T03:29:27.210Z,9.00
2023-02-11T03:30:31.302Z,9.50
2023-02-11T03:31:35.324Z,9.00
2023-02-11T03:34:01.792Z,8.25
2023-02-11T03:35:05.461Z,10.25
2023-02-11T03:36:09.305Z,10.50
2023-02-11T03:37:13.909Z,9.50
2023-02-11T03:38:20.310Z,8.50
2023-02-11T03:39:23.964Z,8.50
2023-02-11T03:40:27.676Z,7.50
2023-02-11T03:41:31.316Z,7.00
2023-02-11T03:42:34.758Z,7.25
2023-02-11T03:45:00.905Z,8.00
2023-02-11T03:46:04.625Z,6.75
2023-02-11T03:47:08.168Z,6.00
2023-02-11T03:48:12.330Z,6.50
2023-02-11T03:49:16.200Z,6.00
2023-02-11T03:50:19.897Z,6.50
2023-02-11T03:51:23.567Z,6.50
2023-02-11T03:52:36.832Z,6.00
2023-02-11T03:53:40.332Z,6.50
2023-02-11T03:54:43.844Z,7.50
2023-02-11T03:55:48.654Z,7.50
2023-02-11T03:56:53.336Z,6.50
2023-02-11T03:57:56.950Z,7.00
2023-02-11T03:59:00.396Z,7.25
2023-02-11T04:00:04.170Z,7.00
2023-02-11T04:01:07.719Z,6.50
2023-02-11T04:02:11.350Z,7.75
2023-02-11T04:03:14.802Z,6.50
2023-02-11T04:04:18.332Z,7.00
2023-02-11T04:05:22.530Z,7.00
2023-02-11T04:06:26.493Z,7.50
2023-02-11T04:07:30.297Z,8.25
2023-02-11T04:08:33.795Z,7.00
2023-02-11T04:09:37.300Z,7.00
2023-02-11T04:10:41.151Z,8.50
2023-02-11T04:11:44.965Z,7.75
2023-02-11T04:12:48.721Z,7.50
2023-02-11T04:13:52.473Z,7.00
2023-02-11T04:14:56.109Z,7.00
2023-02-11T04:15:59.960Z,7.00
2023-02-11T04:17:04.710Z,7.00
2023-02-11T04:18:08.434Z,7.00
2023-02-11T04:19:11.894Z,8.25
2023-02-11T04:20:15.471Z,8.00
2023-02-11T04:21:19.227Z,8.50
2023-02-11T04:22:22.887Z,9.00
2023-02-11T04:23:26.409Z,8.00
2023-02-11T04:24:29.963Z,9.50
2023-02-11T04:25:33.611Z,8.25
2023-02-11T04:26:37.330Z,7.50
2023-02-11T04:27:41.918Z,9.50
2023-02-11T04:28:46.903Z,8.50
2023-02-11T04:29:59.423Z,8.00
2023-02-11T04:31:20.089Z,7.50
2023-02-11T04:32:23.782Z,7.75
2023-02-11T04:33:43.254Z,8.00
2023-02-11T04:34:46.972Z,8.00
2023-02-11T04:35:50.918Z,8.00
2023-02-11T04:36:54.872Z,8.00
2023-02-11T04:37:59.482Z,8.00
2023-02-11T04:39:03.164Z,9.00
2023-02-11T04:40:06.971Z,9.50
2023-02-11T04:42:39.601Z,9.00
2023-02-11T04:43:48.204Z,9.50
2023-02-11T04:44:52.187Z,9.50
2023-02-11T04:46:15.768Z,9.50
2023-02-11T04:47:36.086Z,9.00
2023-02-11T04:48:39.798Z,10.75
2023-02-11T04:49:44.517Z,11.00
2023-02-11T04:50:58.284Z,10.25
2023-02-11T04:53:39.578Z,8.00
2023-02-11T04:54:43.009Z,9.00
2023-02-11T04:55:47.783Z,9.50
2023-02-11T04:56:51.544Z,9.00
2023-02-11T04:57:55.174Z,9.00
2023-02-11T04:59:04.937Z,8.50
2023-02-11T05:00:11.154Z,8.75
2023-02-11T05:01:22.610Z,8.00
2023-02-11T05:02:26.313Z,9.00
2023-02-11T05:03:29.694Z,10.00
2023-02-11T05:04:33.793Z,8.00
2023-02-11T05:05:37.286Z,7.00
2023-02-11T05:06:40.973Z,7.00
2023-02-11T05:07:44.511Z,10.00
2023-02-11T05:08:49.552Z,8.75
2023-02-11T05:09:52.706Z,7.00
2023-02-11T05:10:59.092Z,8.00
2023-02-11T05:12:04.376Z,9.25
2023-02-11T05:13:07.648Z,8.75
2023-02-11T05:14:11.324Z,7.50
2023-02-11T05:15:15.015Z,8.50
2023-02-11T05:16:18.706Z,8.00
2023-02-11T05:17:22.472Z,7.50
2023-02-11T05:18:26.294Z,8.25
2023-02-11T05:19:35.121Z,7.00
2023-02-11T05:20:38.632Z,6.50
2023-02-11T05:21:53.113Z,7.40
2023-02-11T05:22:47.327Z,7.50
2023-02-11T05:23:51.015Z,7.00
2023-02-11T05:24:54.919Z,7.50
2023-02-11T05:25:58.424Z,8.25
2023-02-11T05:27:02.220Z,10.00
2023-02-11T05:28:06.215Z,8.00
2023-02-11T05:29:10.024Z,8.00
2023-02-11T05:30:13.518Z,8.00
2023-02-11T05:31:17.105Z,6.25
2023-02-11T05:32:20.876Z,6.00
2023-02-11T05:33:26.343Z,6.50
2023-02-11T05:34:48.352Z,9.25
2023-02-11T05:35:52.352Z,7.25
2023-02-11T05:36:57.420Z,6.00
2023-02-11T05:38:06.073Z,6.50
2023-02-11T05:39:09.641Z,6.25
2023-02-11T05:40:13.296Z,6.00
2023-02-11T05:41:16.718Z,6.25
2023-02-11T05:42:20.574Z,6.00
2023-02-11T05:43:24.092Z,4.50
2023-02-11T05:44:27.958Z,4.00
2023-02-11T05:45:31.774Z,5.50
2023-02-11T05:46:36.522Z,6.25
2023-02-11T05:47:44.931Z,7.50
2023-02-11T05:48:49.856Z,7.25
2023-02-11T05:49:53.657Z,5.00
2023-02-11T05:50:57.263Z,6.00
2023-02-11T05:52:00.684Z,6.50
2023-02-11T05:53:04.496Z,7.00
2023-02-11T05:54:08.220Z,5.50
2023-02-11T05:55:11.737Z,6.75
2023-02-11T05:56:15.393Z,6.75
2023-02-11T05:57:18.979Z,6.25
2023-02-11T05:58:24.077Z,6.00
2023-02-11T05:59:27.591Z,6.00
2023-02-11T06:00:31.116Z,6.50
2023-02-11T06:01:34.716Z,6.50
2023-02-11T06:02:41.092Z,6.50
2023-02-11T06:03:44.661Z,6.50
2023-02-11T06:04:48.230Z,6.00
2023-02-11T06:05:53.296Z,4.25
2023-02-11T06:06:56.801Z,6.00
2023-02-11T06:08:00.476Z,5.50
2023-02-11T06:09:05.631Z,5.00
2023-02-11T06:10:08.762Z,4.75
2023-02-11T06:11:12.592Z,5.00
2023-02-11T06:12:16.649Z,5.50
2023-02-11T06:13:20.593Z,5.00
2023-02-11T06:14:24.347Z,4.50
2023-02-11T06:15:27.719Z,5.00
2023-02-11T06:16:31.669Z,5.50
2023-02-11T06:17:35.891Z,5.00
2023-02-11T06:18:42.995Z,6.00
2023-02-11T06:19:46.539Z,7.00
2023-02-11T06:20:50.005Z,7.50
2023-02-11T06:21:53.608Z,6.00
2023-02-11T06:22:57.130Z,5.00
2023-02-11T06:24:00.792Z,5.50
2023-02-11T06:25:09.165Z,5.50
2023-02-11T06:26:13.585Z,7.00
2023-02-11T06:27:18.454Z,6.25
2023-02-11T06:28:21.842Z,5.50
2023-02-11T06:29:25.560Z,5.50
2023-02-11T06:30:29.062Z,4.50
2023-02-11T06:31:32.692Z,3.50
2023-02-11T06:32:44.023Z,4.00
2023-02-11T06:33:40.987Z,5.50
2023-02-11T06:34:49.162Z,5.00
2023-02-11T06:35:52.979Z,4.25
2023-02-11T06:36:56.761Z,3.75
2023-02-11T06:38:00.341Z,5.00
2023-02-11T06:39:03.883Z,4.75
2023-02-11T06:40:07.676Z,4.50
2023-02-11T06:41:11.318Z,5.00
2023-02-11T06:42:16.626Z,5.50
2023-02-11T06:43:20.510Z,4.50
2023-02-11T06:44:25.668Z,4.75
2023-02-11T06:45:28.770Z,4.00
2023-02-11T06:46:32.576Z,5.00
2023-02-11T06:47:36.238Z,5.25
2023-02-11T06:51:39.583Z,6.50
2023-02-11T06:52:43.118Z,6.00
2023-02-11T06:53:46.901Z,5.25
2023-02-11T06:54:53.326Z,4.50
2023-02-11T06:55:58.136Z,4.50
2023-02-11T06:57:01.692Z,5.00
2023-02-11T06:58:10.284Z,5.00
2023-02-11T06:59:13.841Z,5.50
2023-02-11T07:00:17.478Z,3.50
2023-02-11T07:01:21.367Z,4.50
2023-02-11T07:02:25.379Z,5.25
2023-02-11T07:03:29.157Z,5.33
2023-02-11T07:04:32.971Z,5.75
2023-02-11T07:05:36.757Z,5.00
2023-02-11T07:06:40.616Z,6.50
2023-02-11T07:07:44.311Z,8.00
2023-02-11T07:08:47.824Z,8.00
2023-02-11T07:09:51.438Z,5.00
2023-02-11T07:10:55.335Z,5.75
2023-02-11T07:11:59.132Z,5.75
2023-02-11T07:13:02.571Z,5.25
2023-02-11T07:14:06.217Z,6.00
2023-02-11T07:15:09.748Z,5.00
2023-02-11T07:16:13.950Z,5.50
2023-02-11T07:17:17.801Z,5.00
2023-02-11T07:18:21.544Z,5.00
2023-02-11T07:19:25.053Z,6.75
2023-02-11T07:20:28.855Z,5.50
2023-02-11T07:21:32.360Z,5.00
2023-02-11T07:22:36.149Z,5.50
2023-02-11T07:23:39.992Z,6.00
2023-02-11T07:24:43.831Z,5.50
2023-02-11T07:25:47.907Z,5.50
2023-02-11T07:26:51.729Z,7.00
2023-02-11T07:27:55.500Z,7.00
2023-02-11T07:28:59.313Z,5.50
2023-02-11T07:30:04.280Z,5.50
2023-02-11T07:31:07.606Z,6.00
2023-02-11T07:32:11.288Z,6.00
2023-02-11T07:33:15.130Z,5.00
2023-02-11T07:34:19.033Z,5.50
2023-02-11T07:35:22.712Z,5.75
2023-02-11T07:36:26.516Z,4.00
2023-02-11T07:37:29.988Z,7.00
2023-02-11T07:38:33.490Z,7.00
2023-02-11T07:39:36.996Z,7.50
2023-02-11T07:40:40.437Z,6.00
2023-02-11T07:41:44.291Z,4.25
2023-02-11T07:42:47.743Z,4.75
2023-02-11T07:43:51.261Z,7.00
2023-02-11T07:44:54.844Z,6.50
2023-02-11T07:45:58.351Z,5.50
2023-02-11T07:47:02.439Z,3.50
2023-02-11T07:48:05.958Z,4.50
2023-02-11T07:49:09.591Z,5.50
2023-02-11T07:50:13.126Z,5.50
2023-02-11T07:51:16.956Z,5.25
2023-02-11T07:52:20.905Z,6.00
2023-02-11T07:53:24.815Z,4.00
2023-02-11T07:54:28.292Z,4.00
2023-02-11T07:55:31.625Z,4.25
2023-02-11T07:56:35.039Z,4.25
2023-02-11T07:57:39.014Z,3.50
2023-02-11T07:58:42.838Z,5.50
2023-02-11T07:59:46.332Z,6.00
2023-02-11T08:00:50.937Z,5.25
2023-02-11T08:01:54.744Z,5.00
2023-02-11T08:02:58.489Z,5.50
2023-02-11T08:04:01.986Z,5.75
2023-02-11T08:05:05.667Z,5.25
2023-02-11T08:06:09.530Z,4.75
2023-02-11T08:07:13.058Z,5.00
2023-02-11T08:08:16.937Z,4.75
2023-02-11T08:09:20.544Z,4.00
2023-02-11T08:10:24.155Z,6.50
2023-02-11T08:11:36.388Z,8.00
2023-02-11T08:12:40.922Z,7.25
2023-02-11T08:13:44.538Z,4.50
2023-02-11T08:14:48.124Z,4.50
2023-02-11T08:15:51.974Z,6.25
2023-02-11T08:16:56.066Z,6.00
2023-02-11T08:17:59.870Z,6.00
2023-02-11T08:19:03.726Z,5.00
2023-02-11T08:20:10.682Z,5.25
2023-02-11T08:21:13.924Z,5.00
2023-02-11T08:22:17.492Z,6.00
2023-02-11T08:23:21.066Z,7.00
2023-02-11T08:24:24.464Z,6.50
2023-02-11T08:25:28.227Z,5.75
2023-02-11T08:26:31.831Z,4.75
2023-02-11T08:27:44.340Z,7.00
2023-02-11T08:28:47.878Z,6.00
2023-02-11T08:29:52.216Z,5.50
2023-02-11T08:30:55.864Z,5.50
2023-02-11T08:32:00.655Z,5.75
2023-02-11T08:33:04.267Z,7.50
2023-02-11T08:34:07.895Z,6.00
2023-02-11T08:35:14.202Z,5.00
2023-02-11T08:36:22.907Z,5.50
2023-02-11T08:37:26.350Z,5.00
2023-02-11T08:38:29.890Z,4.50
2023-02-11T08:39:33.371Z,5.00
2023-02-11T08:40:36.953Z,6.25
2023-02-11T08:41:40.422Z,7.00
2023-02-11T08:42:44.007Z,7.00
2023-02-11T08:43:47.596Z,7.00
2023-02-11T08:44:51.127Z,5.50
2023-02-11T08:45:54.689Z,4.75
2023-02-11T08:46:58.258Z,6.00
2023-02-11T08:48:01.778Z,5.50
2023-02-11T08:49:05.406Z,5.25
2023-02-11T08:50:08.877Z,5.00
2023-02-11T08:51:12.354Z,5.00
2023-02-11T08:52:15.970Z,5.00
2023-02-11T08:53:19.520Z,5.75
2023-02-11T08:54:31.797Z,6.75
2023-02-11T08:55:35.244Z,6.75
2023-02-11T08:56:50.760Z,7.00
2023-02-11T08:57:55.141Z,8.50
2023-02-11T08:59:01.226Z,7.50
2023-02-11T09:00:06.149Z,7.50
2023-02-11T09:01:09.675Z,6.25
2023-02-11T09:02:13.244Z,5.75
2023-02-11T09:03:23.154Z,6.50
2023-02-11T09:04:26.618Z,5.50
2023-02-11T09:05:30.246Z,4.50
2023-02-11T09:06:33.870Z,5.00
2023-02-11T09:07:37.905Z,7.00
2023-02-11T09:08:41.373Z,7.75
2023-02-11T09:09:45.010Z,8.00
2023-02-11T09:10:49.965Z,6.75
2023-02-11T09:11:53.572Z,6.00
2023-02-11T09:13:00.754Z,8.50
2023-02-11T09:14:06.861Z,8.00
2023-02-11T09:15:10.382Z,7.25
2023-02-11T09:16:14.164Z,6.75
2023-02-11T09:17:19.564Z,6.50
2023-02-11T09:18:23.132Z,6.50
2023-02-11T09:19:26.658Z,7.00
2023-02-11T09:20:31.652Z,8.00
2023-02-11T09:21:43.233Z,7.50
2023-02-11T09:22:46.763Z,9.00
2023-02-11T09:23:50.386Z,5.50
2023-02-11T09:24:53.997Z,6.00
2023-02-11T09:26:00.849Z,6.50
2023-02-11T09:27:20.719Z,7.50
2023-02-11T09:28:25.338Z,8.50
2023-02-11T09:29:28.824Z,7.50
2023-02-11T09:30:33.300Z,7.50
2023-02-11T09:31:37.990Z,8.00
2023-02-11T09:32:43.783Z,7.00
2023-02-11T09:33:50.135Z,9.50
2023-02-11T09:35:02.290Z,7.00
2023-02-11T09:36:18.813Z,7.25
2023-02-11T09:37:23.903Z,6.50
2023-02-11T09:38:29.214Z,7.25
2023-02-11T09:39:32.396Z,6.50
2023-02-11T09:40:36.256Z,7.50
2023-02-11T09:41:39.827Z,6.50
2023-02-11T09:42:43.363Z,7.00
2023-02-11T09:43:47.178Z,8.50
2023-02-11T09:44:52.255Z,6.00
2023-02-11T09:45:56.240Z,6.25
2023-02-11T09:46:59.933Z,6.00
2023-02-11T09:48:05.885Z,5.00
2023-02-11T09:49:08.107Z,5.25
2023-02-11T09:50:11.667Z,5.50
2023-02-11T09:51:15.391Z,6.00
2023-02-11T09:52:18.837Z,6.00
2023-02-11T09:53:22.775Z,5.50
2023-02-11T09:54:26.242Z,5.25
2023-02-11T09:55:29.645Z,4.50
2023-02-11T09:56:39.001Z,8.25
2023-02-11T09:57:43.688Z,7.50
2023-02-11T09:58:47.263Z,6.00
2023-02-11T09:59:51.076Z,5.75
2023-02-11T10:00:54.558Z,5.50
2023-02-11T10:01:58.128Z,5.50
2023-02-11T10:03:01.531Z,5.50
2023-02-11T10:04:05.332Z,5.00
2023-02-11T10:05:09.012Z,6.00
2023-02-11T10:06:15.521Z,6.50
2023-02-11T10:07:19.285Z,5.50
2023-02-11T10:08:22.941Z,6.50
2023-02-11T10:09:26.364Z,6.00
2023-02-11T10:10:29.904Z,5.75
2023-02-11T10:11:33.361Z,6.00
2023-02-11T10:12:37.877Z,6.00
2023-02-11T10:13:42.634Z,6.00
2023-02-11T10:14:46.193Z,5.00
2023-02-11T10:15:54.726Z,6.00
2023-02-11T10:16:59.906Z,7.00
2023-02-11T10:18:03.330Z,6.50
2023-02-11T10:19:06.757Z,6.25
2023-02-11T10:20:10.321Z,5.50
2023-02-11T10:21:15.323Z,5.75
2023-02-11T10:22:18.794Z,7.00
2023-02-11T10:23:22.376Z,5.00
2023-02-11T10:24:25.779Z,4.00
2023-02-11T10:25:29.176Z,4.75
2023-02-11T10:26:33.022Z,6.00
2023-02-11T10:27:36.647Z,6.75
2023-02-11T10:28:40.284Z,6.00
2023-02-11T10:29:43.707Z,6.50
2023-02-11T10:30:47.504Z,6.50
2023-02-11T10:31:51.360Z,6.00
2023-02-11T10:32:55.157Z,6.50
2023-02-11T10:33:58.686Z,7.00
2023-02-11T10:35:03.483Z,6.50
2023-02-11T10:36:06.959Z,4.75
2023-02-11T10:37:10.579Z,5.00
2023-02-11T10:38:14.039Z,6.00
2023-02-11T10:39:19.153Z,5.00
2023-02-11T10:40:22.161Z,6.25
2023-02-11T10:41:25.658Z,6.50
2023-02-11T10:42:29.173Z,7.00
2023-02-11T10:43:32.812Z,6.50
2023-02-11T10:44:36.326Z,6.75
2023-02-11T10:45:43.244Z,5.50
2023-02-11T10:46:46.835Z,4.50
2023-02-11T10:47:50.376Z,5.00
2023-02-11T10:48:58.719Z,7.25
2023-02-11T10:50:02.380Z,7.00
2023-02-11T10:51:05.958Z,6.00
2023-02-11T10:52:09.329Z,5.50
2023-02-11T10:54:34.739Z,8.00
2023-02-11T10:55:41.198Z,5.50
2023-02-11T10:56:44.675Z,6.25
2023-02-11T10:57:48.088Z,6.25
2023-02-11T10:58:51.495Z,6.50
2023-02-11T10:59:55.115Z,5.75
2023-02-11T11:02:15.547Z,5.50
2023-02-11T11:03:22.131Z,6.50
2023-02-11T11:04:25.191Z,8.50
2023-02-11T11:05:28.750Z,9.00
2023-02-11T11:06:33.789Z,7.75
2023-02-11T11:07:37.298Z,6.50
2023-02-11T11:11:13.783Z,6.00
2023-02-11T11:12:17.623Z,6.50
2023-02-11T11:13:27.861Z,7.67
2023-02-11T11:14:32.353Z,7.75
2023-02-11T11:15:36.190Z,7.25
2023-02-11T11:16:40.917Z,6.00
2023-02-11T11:17:44.704Z,6.25
2023-02-11T11:18:48.191Z,8.50
2023-02-11T11:19:54.443Z,5.75
2023-02-11T11:21:02.736Z,4.75
2023-02-11T11:22:06.358Z,6.50
2023-02-11T11:23:09.942Z,7.00
2023-02-11T11:24:15.505Z,8.00
2023-02-11T11:25:19.218Z,8.25
2023-02-11T11:26:22.840Z,6.75
2023-02-11T11:27:26.372Z,6.75
2023-02-11T11:28:30.058Z,7.00
2023-02-11T11:29:33.817Z,5.25
2023-02-11T11:30:37.620Z,6.00
2023-02-11T11:31:42.292Z,4.50
2023-02-11T11:32:46.116Z,6.50
2023-02-11T11:33:49.638Z,6.00
2023-02-11T11:34:53.334Z,6.00
2023-02-11T11:35:57.139Z,7.50
2023-02-11T11:37:00.952Z,7.50
2023-02-11T11:38:04.528Z,8.25
2023-02-11T11:39:08.006Z,8.50
2023-02-11T11:40:11.564Z,7.50
2023-02-11T11:41:15.091Z,7.00
2023-02-11T11:42:20.094Z,6.00
2023-02-11T11:43:26.145Z,5.50
2023-02-11T11:44:29.797Z,6.50
2023-02-11T11:45:33.884Z,6.25
2023-02-11T11:46:43.815Z,6.25
2023-02-11T11:47:48.653Z,5.25
2023-02-11T11:48:55.024Z,4.75
2023-02-11T11:49:58.155Z,6.50
2023-02-11T11:51:01.563Z,8.00
2023-02-11T11:52:05.242Z,7.50
2023-02-11T11:53:09.048Z,7.00
2023-02-11T11:54:12.810Z,5.50
2023-02-11T11:55:16.723Z,5.50
2023-02-11T11:56:20.449Z,5.75
2023-02-11T11:57:24.164Z,7.50
2023-02-11T11:58:38.490Z,6.75
2023-02-11T11:59:41.533Z,7.50
2023-02-11T12:00:45.075Z,8.50
2023-02-11T12:01:48.676Z,5.00
2023-02-11T12:02:52.166Z,6.50
2023-02-11T12:03:55.711Z,6.00
2023-02-11T12:04:59.331Z,6.50
2023-02-11T12:06:03.019Z,7.25
2023-02-11T12:07:06.894Z,6.50
2023-02-11T12:08:10.519Z,7.00
2023-02-11T12:09:17.116Z,5.75
2023-02-11T12:11:53.573Z,7.00
2023-02-11T12:12:56.477Z,6.25
2023-02-11T12:13:59.927Z,7.25
2023-02-11T12:15:03.307Z,6.25
2023-02-11T12:16:07.157Z,4.25
2023-02-11T12:17:10.790Z,5.00
2023-02-11T12:18:14.266Z,6.00
2023-02-11T12:19:17.967Z,6.25
2023-02-11T12:20:21.509Z,6.25
2023-02-11T12:21:25.159Z,7.00
2023-02-11T12:22:28.621Z,7.50
2023-02-11T12:23:32.414Z,7.00
2023-02-11T12:24:36.055Z,8.00
2023-02-11T12:25:39.751Z,8.75
2023-02-11T12:26:43.434Z,9.25
2023-02-11T12:27:46.887Z,7.25
2023-02-11T12:28:50.502Z,6.50
2023-02-11T12:29:53.972Z,7.00
2023-02-11T12:30:57.425Z,7.50
2023-02-11T12:32:01.191Z,7.00
2023-02-11T12:33:04.972Z,4.75
2023-02-11T12:34:08.716Z,5.00
2023-02-11T12:35:12.416Z,5.50
2023-02-11T12:36:15.963Z,5.25
2023-02-11T12:37:19.437Z,6.75
2023-02-11T12:38:22.875Z,7.50
2023-02-11T12:39:26.611Z,4.50
2023-02-11T12:40:30.432Z,6.00
2023-02-11T12:41:34.189Z,6.00
2023-02-11T12:42:38.139Z,4.50
2023-02-11T12:43:41.730Z,6.25
2023-02-11T12:44:45.846Z,7.25
2023-02-11T12:45:49.322Z,7.50
2023-02-11T12:46:52.935Z,6.75
2023-02-11T12:47:56.526Z,5.50
2023-02-11T12:49:00.008Z,6.00
2023-02-11T12:50:03.689Z,7.25
2023-02-11T12:51:07.594Z,7.75
2023-02-11T12:52:11.031Z,10.75
2023-02-11T12:53:14.773Z,8.25
2023-02-11T12:55:34.073Z,8.00
2023-02-11T12:56:38.888Z,4.75
2023-02-11T12:57:42.984Z,6.00
2023-02-11T12:58:47.488Z,8.50
2023-02-11T12:59:52.011Z,8.25
2023-02-11T13:00:56.336Z,5.50
2023-02-11T13:02:00.595Z,6.75
2023-02-11T13:03:05.285Z,5.50
2023-02-11T13:04:09.287Z,6.00
2023-02-11T13:05:14.407Z,6.00
2023-02-11T13:06:18.774Z,5.50
2023-02-11T13:07:23.194Z,7.50
2023-02-11T13:08:27.568Z,7.00
2023-02-11T13:09:32.332Z,6.00
2023-02-11T13:10:37.134Z,7.00
2023-02-11T13:11:42.375Z,7.00
2023-02-11T13:12:46.903Z,6.75
2023-02-11T13:13:51.349Z,7.25
2023-02-11T13:14:56.233Z,7.50
2023-02-11T13:16:00.530Z,6.75
2023-02-11T13:17:05.171Z,8.00
2023-02-11T13:18:09.456Z,6.50
2023-02-11T13:19:13.575Z,7.00
2023-02-11T13:20:17.802Z,7.50
2023-02-11T13:21:22.092Z,6.25
2023-02-11T13:22:26.277Z,5.50
2023-02-11T13:23:31.655Z,7.00
2023-02-11T13:24:37.011Z,7.75
2023-02-11T13:25:41.008Z,6.75
2023-02-11T13:26:45.558Z,5.00
2023-02-11T13:27:49.843Z,7.25
2023-02-11T13:28:54.275Z,6.00
2023-02-11T13:29:58.381Z,6.00
2023-02-11T13:31:02.568Z,7.00
2023-02-11T13:32:06.832Z,8.50
2023-02-11T13:33:11.415Z,8.00
2023-02-11T13:34:15.615Z,7.00
2023-02-11T13:35:20.121Z,8.50
2023-02-11T13:36:24.333Z,8.00
2023-02-11T13:37:28.653Z,7.00
2023-02-11T13:38:33.249Z,5.50
2023-02-11T13:39:37.685Z,8.00
2023-02-11T13:40:42.389Z,7.50
2023-02-11T13:41:46.483Z,6.50
2023-02-11T13:42:50.701Z,6.25
2023-02-11T13:43:55.108Z,5.00
2023-02-11T13:44:59.721Z,7.50
2023-02-11T13:46:04.358Z,7.25
2023-02-11T13:47:08.386Z,8.50
2023-02-11T13:48:13.292Z,7.50
2023-02-11T13:49:17.904Z,6.75
2023-02-11T13:50:22.492Z,6.00
2023-02-11T13:51:26.481Z,6.25
2023-02-11T13:52:30.696Z,8.00
2023-02-11T13:53:35.212Z,8.00
2023-02-11T13:54:39.814Z,7.25
2023-02-11T13:55:44.125Z,6.50
2023-02-11T13:56:48.550Z,7.00
2023-02-11T13:57:56.996Z,7.00
2023-02-11T13:59:02.140Z,9.00
2023-02-11T14:00:06.393Z,9.25
2023-02-11T14:01:10.779Z,9.00
2023-02-11T14:02:15.661Z,7.50
2023-02-11T14:03:19.838Z,7.00
2023-02-11T14:04:24.431Z,7.25
2023-02-11T14:05:28.777Z,7.00
2023-02-11T14:06:33.380Z,6.50
2023-02-11T14:07:40.769Z,5.75
2023-02-11T14:08:45.652Z,6.25
2023-02-11T14:09:50.266Z,5.75
2023-02-11T14:18:09.703Z,6.00
2023-02-11T14:19:13.915Z,6.00
2023-02-11T14:20:18.533Z,7.00
2023-02-11T14:21:22.845Z,8.50
2023-02-11T14:22:27.551Z,8.00
2023-02-11T14:23:32.361Z,6.25
2023-02-11T14:24:37.288Z,5.75
2023-02-11T14:25:41.592Z,7.00
2023-02-11T14:26:46.268Z,7.50
2023-02-11T14:27:51.348Z,7.25
2023-02-11T14:28:55.357Z,7.25
2023-02-11T14:30:00.871Z,7.75
2023-02-11T14:31:05.701Z,7.50
2023-02-11T14:32:09.738Z,7.75
2023-02-11T14:33:14.038Z,7.00
2023-02-11T14:34:18.106Z,5.00
2023-02-11T14:35:22.828Z,5.00
2023-02-11T14:36:27.873Z,5.50
2023-02-11T14:37:32.491Z,7.00
2023-02-11T14:38:36.778Z,7.00
2023-02-11T14:39:41.223Z,7.25
2023-02-11T14:40:45.886Z,6.00
2023-02-11T14:41:49.996Z,7.25
2023-02-11T14:42:54.315Z,8.00
2023-02-11T14:43:58.857Z,7.50
2023-02-11T14:45:05.186Z,8.75
2023-02-11T14:46:09.811Z,9.00
2023-02-11T14:47:14.674Z,7.75
2023-02-11T14:48:18.689Z,5.50
2023-02-11T14:49:23.236Z,7.00
2023-02-11T14:50:27.633Z,8.00
2023-02-11T14:51:32.703Z,8.00
2023-02-11T14:52:37.409Z,9.50
2023-02-11T14:53:41.616Z,7.50
2023-02-11T14:54:45.900Z,8.40
2023-02-11T14:55:50.304Z,9.00
2023-02-11T14:56:54.108Z,8.00